Time;durP1;ratioP1;P1;durP2;ratioP2;P2;SDS_P1;SDS_P2;PMS_P1;PMS_P2;Temp;Humidity;BMP_temperature;BMP_pressure;BME280_temperature;BME280_humidity;BME280_pressure;Samples;Min_cycle;Max_cycle;Signal;HPM_P1;HPM_P2
2023/05/12 00:01:26;;;;;;;43.63;25.70;;;14.20;99.90;;;;;;5112002;28;20451;-72
2023/05/12 00:03:52;;;;;;;42.13;24.87;;;14.30;99.90;;;;;;5112446;28;20451;-71
2023/05/12 00:06:18;;;;;;;39.85;25.40;;;14.20;99.90;;;;;;5112452;28;20378;-72
2023/05/12 00:08:44;;;;;;;40.75;25.38;;;14.20;99.90;;;;;;5112228;28;20410;-73
2023/05/12 00:11:10;;;;;;;36.70;23.70;;;14.20;99.90;;;;;;5112215;28;20384;-71
2023/05/12 00:13:35;;;;;;;37.30;23.80;;;14.20;99.90;;;;;;5113558;28;20384;-72
2023/05/12 00:16:02;;;;;;;40.40;23.30;;;14.20;99.90;;;;;;5112869;28;20426;-72
2023/05/12 00:18:27;;;;;;;39.95;24.15;;;14.20;99.90;;;;;;5114137;28;20373;-72
2023/05/12 00:20:54;;;;;;;42.33;25.30;;;14.30;99.90;;;;;;5113990;28;20399;-71
2023/05/12 00:23:20;;;;;;;43.13;26.47;;;14.30;99.90;;;;;;5114472;28;20389;-72
2023/05/12 00:25:45;;;;;;;45.92;26.73;;;14.30;99.90;;;;;;5113689;28;20735;-72
2023/05/12 00:28:11;;;;;;;44.47;27.38;;;14.30;99.90;;;;;;5112243;28;20388;-73
2023/05/12 00:30:37;;;;;;;48.08;29.95;;;14.20;99.90;;;;;;5112426;28;20887;-72
2023/05/12 00:33:04;;;;;;;45.47;28.38;;;14.20;99.90;;;;;;5111860;28;20380;-72
2023/05/12 00:35:30;;;;;;;46.03;27.83;;;14.20;99.90;;;;;;5112501;28;20884;-72
2023/05/12 00:37:55;;;;;;;45.90;29.27;;;14.10;99.90;;;;;;5112576;28;20379;-71
2023/05/12 00:40:21;;;;;;;46.00;28.40;;;14.10;99.90;;;;;;5112471;28;20379;-74
2023/05/12 00:42:46;;;;;;;47.63;29.83;;;14.20;99.90;;;;;;5111843;28;20514;-72
2023/05/12 00:45:12;;;;;;;40.85;24.80;;;14.20;99.90;;;;;;5112018;28;20403;-71
2023/05/12 00:47:38;;;;;;;35.70;23.42;;;14.20;99.90;;;;;;5112320;28;20459;-71
2023/05/12 00:50:05;;;;;;;31.40;20.17;;;14.10;99.90;;;;;;5111866;28;20410;-72
2023/05/12 00:52:30;;;;;;;34.25;21.05;;;14.10;99.90;;;;;;5111903;28;20384;-71
2023/05/12 00:54:57;;;;;;;34.05;21.58;;;14.00;99.90;;;;;;5112969;28;20392;-72
2023/05/12 00:57:26;;;;;;;35.42;22.17;;;14.00;99.90;;;;;;5112458;28;20743;-71
2023/05/12 00:59:52;;;;;;;34.78;22.55;;;14.00;99.90;;;;;;5111757;28;20433;-72
2023/05/12 01:02:18;;;;;;;31.10;20.88;;;14.00;99.90;;;;;;5093086;28;20416;-72
2023/05/12 01:04:43;;;;;;;29.60;20.30;;;13.90;99.90;;;;;;5111598;28;20380;-71
2023/05/12 01:07:16;;;;;;;28.27;18.20;;;14.00;99.90;;;;;;5111957;28;20404;-72
2023/05/12 01:09:41;;;;;;;27.58;18.42;;;13.90;99.90;;;;;;5111889;28;20375;-71
2023/05/12 01:12:07;;;;;;;23.03;16.20;;;13.90;99.90;;;;;;5092943;28;20757;-71
2023/05/12 01:14:33;;;;;;;21.88;14.55;;;13.80;99.90;;;;;;5111936;28;20749;-72
2023/05/12 01:17:02;;;;;;;18.35;14.23;;;13.90;99.90;;;;;;5115473;28;20368;-72
2023/05/12 01:19:51;;;;;;;19.47;14.50;;;14.00;99.90;;;;;;5097357;28;20391;-71
2023/05/12 01:22:17;;;;;;;24.37;17.30;;;14.00;99.90;;;;;;5115337;28;20368;-71
2023/05/12 01:24:52;;;;;;;29.15;21.10;;;14.00;99.90;;;;;;5115383;28;20395;-72
2023/05/12 01:27:20;;;;;;;28.30;17.60;;;13.90;99.90;;;;;;5115372;28;20375;-72
2023/05/12 01:29:47;;;;;;;23.80;16.25;;;13.90;99.90;;;;;;5115667;28;20464;-71
2023/05/12 01:32:13;;;;;;;17.60;11.63;;;13.90;99.90;;;;;;5114837;28;20429;-71
2023/05/12 01:34:41;;;;;;;13.95;9.80;;;13.80;99.90;;;;;;5114922;28;20384;-72
2023/05/12 01:37:08;;;;;;;12.50;9.60;;;13.80;99.90;;;;;;5114671;28;20383;-72
2023/05/12 01:39:33;;;;;;;13.20;8.90;;;13.80;99.90;;;;;;5115046;28;20778;-71
2023/05/12 01:41:59;;;;;;;11.77;8.50;;;13.80;99.90;;;;;;5114317;28;20416;-71
2023/05/12 01:44:25;;;;;;;8.82;6.60;;;13.70;99.90;;;;;;5119076;28;20849;-72
2023/05/12 01:46:51;;;;;;;7.75;6.10;;;13.70;99.90;;;;;;5123005;28;20372;-72
2023/05/12 01:49:16;;;;;;;6.43;5.72;;;13.70;99.90;;;;;;5123928;28;20384;-74
2023/05/12 01:51:42;;;;;;;7.83;5.90;;;13.70;99.90;;;;;;5114840;28;20404;-71
2023/05/12 01:54:07;;;;;;;7.53;5.00;;;13.60;99.90;;;;;;5114404;28;20725;-72
2023/05/12 01:56:33;;;;;;;3.63;3.33;;;13.70;99.90;;;;;;5114274;28;20464;-70
2023/05/12 01:58:58;;;;;;;3.60;3.30;;;13.70;99.90;;;;;;5114140;28;20392;-72
2023/05/12 02:01:27;;;;;;;3.70;3.40;;;13.70;99.90;;;;;;5113709;28;20368;-73
2023/05/12 02:03:54;;;;;;;3.63;3.30;;;13.80;99.90;;;;;;5113643;28;20423;-72
2023/05/12 02:06:20;;;;;;;4.90;3.60;;;13.70;99.90;;;;;;5095711;28;20471;-73
2023/05/12 02:08:46;;;;;;;5.38;3.65;;;13.80;99.90;;;;;;5114185;28;20769;-71
2023/05/12 02:11:11;;;;;;;2.80;2.60;;;13.70;99.90;;;;;;5113482;28;20388;-73
2023/05/12 02:13:37;;;;;;;2.42;2.22;;;13.70;99.90;;;;;;5113883;28;20414;-71
2023/05/12 02:16:02;;;;;;;2.47;2.27;;;13.70;99.90;;;;;;5113998;28;20401;-71
2023/05/12 02:18:28;;;;;;;2.00;1.80;;;13.70;99.90;;;;;;5114129;28;20409;-71
2023/05/12 02:20:53;;;;;;;2.63;2.10;;;13.70;99.90;;;;;;5113301;28;20377;-71
2023/05/12 02:23:19;;;;;;;1.97;1.87;;;13.70;99.90;;;;;;5113435;28;20872;-71
2023/05/12 02:25:45;;;;;;;2.10;1.90;;;13.70;99.90;;;;;;5113160;28;20970;-70
2023/05/12 02:28:11;;;;;;;2.10;1.80;;;13.60;99.90;;;;;;5112981;28;20372;-72
2023/05/12 02:30:37;;;;;;;2.00;1.80;;;13.70;99.90;;;;;;5113541;28;20407;-71
2023/05/12 02:33:04;;;;;;;2.17;1.85;;;13.70;99.90;;;;;;5113249;28;20388;-72
2023/05/12 02:35:30;;;;;;;1.80;1.70;;;13.60;99.90;;;;;;5095368;28;20432;-72
2023/05/12 02:37:56;;;;;;;1.80;1.70;;;13.60;99.90;;;;;;5113377;28;20376;-73
2023/05/12 02:40:22;;;;;;;2.30;2.10;;;13.50;99.90;;;;;;5113493;28;20726;-72
2023/05/12 02:42:47;;;;;;;2.80;2.30;;;13.50;99.90;;;;;;5112787;28;20437;-70
2023/05/12 02:45:13;;;;;;;2.40;2.20;;;13.50;99.90;;;;;;5113119;28;20380;-71
2023/05/12 02:47:38;;;;;;;2.40;2.20;;;13.50;99.90;;;;;;5113366;28;20829;-71
2023/05/12 02:50:05;;;;;;;2.70;2.20;;;13.50;99.90;;;;;;5113522;28;20752;-72
2023/05/12 02:52:30;;;;;;;2.50;2.20;;;13.50;99.90;;;;;;5112987;28;20929;-71
2023/05/12 02:54:56;;;;;;;2.97;2.13;;;13.50;99.90;;;;;;5113052;28;20396;-71
2023/05/12 02:57:21;;;;;;;2.70;2.50;;;13.50;99.90;;;;;;5112862;28;20452;-71
2023/05/12 02:59:47;;;;;;;2.90;2.70;;;13.60;99.90;;;;;;5112889;28;20380;-71
2023/05/12 03:02:12;;;;;;;2.70;2.50;;;13.60;99.90;;;;;;5112364;28;20464;-71
2023/05/12 03:04:38;;;;;;;2.90;2.70;;;13.50;99.90;;;;;;5112712;28;20480;-71
2023/05/12 03:07:04;;;;;;;4.07;3.20;;;13.60;99.90;;;;;;5112726;28;20383;-71
2023/05/12 03:09:29;;;;;;;3.95;3.20;;;13.70;99.90;;;;;;5112625;28;20849;-70
2023/05/12 03:11:55;;;;;;;5.00;2.60;;;13.60;99.90;;;;;;5112031;28;20865;-73
2023/05/12 03:14:20;;;;;;;3.83;3.07;;;13.60;99.90;;;;;;5112625;28;20821;-73
2023/05/12 03:16:46;;;;;;;3.40;3.10;;;13.60;99.90;;;;;;5112481;28;20941;-72
2023/05/12 03:19:12;;;;;;;3.15;2.95;;;13.60;99.90;;;;;;5112331;28;20876;-72
2023/05/12 03:21:37;;;;;;;3.20;2.90;;;13.60;99.90;;;;;;5112016;28;20433;-72
2023/05/12 03:24:03;;;;;;;3.60;2.80;;;13.60;99.90;;;;;;5114459;22;20438;-73
2023/05/12 03:26:29;;;;;;;2.50;2.30;;;13.60;99.90;;;;;;5072092;28;20384;-74
2023/05/12 03:28:55;;;;;;;3.28;2.97;;;13.60;99.90;;;;;;5074582;28;20376;-73
2023/05/12 03:31:20;;;;;;;2.80;2.60;;;13.60;99.90;;;;;;5074718;28;20555;-73
2023/05/12 03:33:46;;;;;;;2.70;2.50;;;13.60;99.90;;;;;;5072992;28;20367;-74
2023/05/12 03:36:11;;;;;;;4.40;3.40;;;13.60;99.90;;;;;;5072140;28;20408;-74
2023/05/12 03:38:37;;;;;;;3.75;3.35;;;13.60;99.90;;;;;;5071273;28;20866;-74
2023/05/12 03:41:06;;;;;;;3.30;3.00;;;13.50;99.90;;;;;;5071118;28;20431;-74
2023/05/12 03:43:31;;;;;;;5.10;3.60;;;13.60;99.90;;;;;;5054362;28;20879;-74
2023/05/12 03:45:57;;;;;;;6.75;3.80;;;13.60;99.90;;;;;;5071409;28;20437;-74
2023/05/12 03:48:23;;;;;;;8.13;4.57;;;13.70;99.90;;;;;;5071632;28;20856;-74
2023/05/12 03:50:48;;;;;;;4.83;4.33;;;13.60;99.90;;;;;;5071230;28;20526;-74
2023/05/12 03:53:14;;;;;;;5.00;4.50;;;13.60;99.90;;;;;;5070930;28;20445;-74
2023/05/12 03:55:40;;;;;;;6.07;5.47;;;13.70;99.90;;;;;;5071267;28;20418;-73
2023/05/12 03:58:06;;;;;;;6.63;5.70;;;13.70;99.90;;;;;;5071670;28;20380;-74
2023/05/12 04:00:32;;;;;;;6.10;5.50;;;13.70;99.90;;;;;;5071088;28;20388;-73
2023/05/12 04:02:58;;;;;;;7.65;6.35;;;13.60;99.90;;;;;;5070468;28;20474;-74
2023/05/12 04:05:24;;;;;;;8.75;6.88;;;13.70;99.90;;;;;;5053270;28;20919;-74
2023/05/12 04:07:50;;;;;;;13.10;8.43;;;13.70;99.90;;;;;;5072159;28;20387;-75
2023/05/12 04:10:15;;;;;;;14.03;9.20;;;13.70;99.90;;;;;;5071220;28;20919;-74
2023/05/12 04:12:41;;;;;;;11.97;9.20;;;13.70;99.90;;;;;;5052640;28;20392;-74
2023/05/12 04:15:07;;;;;;;12.27;9.07;;;13.70;99.90;;;;;;5052923;28;20919;-74
2023/05/12 04:17:33;;;;;;;12.67;9.30;;;13.80;99.90;;;;;;5070969;28;20372;-74
2023/05/12 04:19:59;;;;;;;15.80;10.88;;;13.80;99.90;;;;;;5070818;28;20501;-74
2023/05/12 04:22:25;;;;;;;11.75;9.15;;;13.80;99.90;;;;;;5070219;28;20475;-73
2023/05/12 04:24:50;;;;;;;10.32;8.50;;;13.80;99.90;;;;;;5070450;28;20737;-72
2023/05/12 04:27:16;;;;;;;8.85;7.20;;;14.00;99.90;;;;;;5070591;28;20479;-73
2023/05/12 04:29:41;;;;;;;8.43;7.07;;;13.90;99.90;;;;;;5070639;28;20880;-73
2023/05/12 04:32:07;;;;;;;9.17;6.70;;;13.80;99.90;;;;;;5070085;28;20386;-73
2023/05/12 04:34:33;;;;;;;8.27;5.97;;;13.90;99.90;;;;;;5070657;28;20392;-73
2023/05/12 04:36:58;;;;;;;10.10;5.70;;;14.00;99.90;;;;;;5070822;28;20448;-72
2023/05/12 04:39:24;;;;;;;10.13;6.30;;;14.10;99.90;;;;;;5070701;28;20383;-73
2023/05/12 04:41:49;;;;;;;9.35;5.90;;;13.90;99.90;;;;;;5069858;28;20442;-72
2023/05/12 04:44:15;;;;;;;7.60;5.47;;;14.00;99.90;;;;;;5070552;28;20394;-73
2023/05/12 04:46:42;;;;;;;8.63;6.30;;;14.00;99.90;;;;;;5070397;28;20383;-73
2023/05/12 04:49:07;;;;;;;7.80;6.18;;;14.20;99.90;;;;;;5069956;28;20403;-74
2023/05/12 04:51:33;;;;;;;7.85;6.07;;;14.20;99.90;;;;;;5073714;28;20775;-73
2023/05/12 04:53:58;;;;;;;8.05;5.80;;;14.10;99.90;;;;;;5074390;28;20395;-74
2023/05/12 04:56:24;;;;;;;6.35;4.97;;;14.20;99.90;;;;;;5074270;28;20807;-74
2023/05/12 04:58:49;;;;;;;6.87;5.73;;;14.30;99.90;;;;;;5056832;28;20375;-74
2023/05/12 05:01:15;;;;;;;10.70;6.17;;;14.30;99.90;;;;;;5073957;28;20387;-74
2023/05/12 05:03:41;;;;;;;9.20;5.50;;;14.40;99.90;;;;;;5056517;28;20772;-74
2023/05/12 05:06:07;;;;;;;8.27;5.03;;;14.60;99.90;;;;;;5074131;28;20869;-74
2023/05/12 05:08:32;;;;;;;6.30;5.30;;;14.60;99.90;;;;;;5074243;28;20379;-74
2023/05/12 05:10:58;;;;;;;7.32;5.60;;;14.70;99.90;;;;;;5073616;28;20384;-75
2023/05/12 05:13:23;;;;;;;7.20;4.90;;;14.80;99.90;;;;;;5074121;28;20383;-75
2023/05/12 05:15:50;;;;;;;8.30;5.37;;;14.80;99.90;;;;;;5074527;28;20439;-75
2023/05/12 05:18:16;;;;;;;5.78;4.90;;;14.90;99.90;;;;;;5073959;28;20383;-74
2023/05/12 05:20:42;;;;;;;7.87;4.90;;;14.90;99.50;;;;;;5073971;28;20381;-73
2023/05/12 05:23:08;;;;;;;7.57;5.10;;;15.00;96.80;;;;;;5073168;28;20396;-73
2023/05/12 05:25:34;;;;;;;5.53;4.78;;;15.00;97.20;;;;;;5072789;28;20453;-74
2023/05/12 05:27:59;;;;;;;8.88;4.50;;;15.20;94.70;;;;;;5073412;28;20417;-74
2023/05/12 05:30:25;;;;;;;6.63;4.80;;;15.30;90.10;;;;;;5073982;28;20383;-74
2023/05/12 05:32:50;;;;;;;7.70;5.07;;;15.50;87.60;;;;;;5073319;28;20411;-74
2023/05/12 05:35:16;;;;;;;5.00;4.10;;;15.70;83.60;;;;;;5072243;28;20448;-75
2023/05/12 05:37:42;;;;;;;7.50;4.20;;;15.80;82.00;;;;;;5073403;28;20551;-74
2023/05/12 05:40:11;;;;;;;6.40;4.10;;;15.80;80.70;;;;;;5074025;28;20387;-72
2023/05/12 05:42:36;;;;;;;5.60;4.40;;;15.80;81.50;;;;;;5072617;28;20858;-73
2023/05/12 05:45:02;;;;;;;9.98;5.05;;;15.70;82.20;;;;;;5058233;28;20468;-73
2023/05/12 05:47:27;;;;;;;5.53;4.65;;;15.80;79.40;;;;;;5076503;28;20707;-72
2023/05/12 05:49:54;;;;;;;7.80;4.83;;;15.70;75.80;;;;;;5086725;28;20387;-72
2023/05/12 05:52:19;;;;;;;6.95;5.18;;;15.70;78.40;;;;;;5072639;28;20384;-72
2023/05/12 05:54:45;;;;;;;7.80;5.00;;;15.90;77.30;;;;;;5073005;28;20741;-73
2023/05/12 05:57:11;;;;;;;5.95;4.60;;;15.90;73.40;;;;;;5073191;28;20383;-75
2023/05/12 05:59:37;;;;;;;6.70;4.37;;;15.90;74.60;;;;;;5073407;28;20379;-74
2023/05/12 06:02:02;;;;;;;6.75;6.10;;;15.90;73.30;;;;;;5072773;28;20461;-74
2023/05/12 06:04:28;;;;;;;6.60;5.17;;;16.00;73.60;;;;;;5073827;28;20372;-74
2023/05/12 06:06:54;;;;;;;7.03;5.90;;;16.00;73.80;;;;;;5073849;28;20399;-74
2023/05/12 06:09:19;;;;;;;6.60;4.70;;;15.90;72.30;;;;;;5073306;28;20421;-74
2023/05/12 06:11:45;;;;;;;7.60;5.35;;;15.90;72.40;;;;;;5072454;28;20756;-72
2023/05/12 06:14:11;;;;;;;7.45;4.95;;;16.10;70.20;;;;;;5073064;28;20392;-74
2023/05/12 06:16:36;;;;;;;5.47;4.97;;;16.20;68.20;;;;;;5055755;28;20403;-72
2023/05/12 06:19:02;;;;;;;7.20;5.70;;;16.30;67.90;;;;;;5073078;28;20395;-73
2023/05/12 06:21:27;;;;;;;7.10;5.47;;;16.20;69.20;;;;;;5072391;28;20736;-73
2023/05/12 06:23:55;;;;;;;8.38;5.88;;;16.20;70.70;;;;;;5072859;28;20392;-72
2023/05/12 06:26:20;;;;;;;9.23;5.50;;;16.40;68.40;;;;;;5054938;28;20884;-76
2023/05/12 06:28:46;;;;;;;7.10;5.20;;;16.30;68.80;;;;;;5072581;28;20384;-74
2023/05/12 06:31:12;;;;;;;8.00;5.30;;;16.10;70.90;;;;;;5072626;28;20392;-74
2023/05/12 06:33:37;;;;;;;5.70;5.10;;;16.30;68.90;;;;;;5055646;28;20391;-74
2023/05/12 06:36:03;;;;;;;11.40;5.10;;;16.40;69.50;;;;;;5074250;28;20498;-74
2023/05/12 06:38:29;;;;;;;5.30;4.60;;;16.40;65.80;;;;;;5079439;28;20384;-73
2023/05/12 06:40:55;;;;;;;5.57;5.00;;;16.40;67.70;;;;;;5080937;28;20380;-72
2023/05/12 06:43:20;;;;;;;8.27;5.00;;;16.30;69.00;;;;;;5077639;28;20432;-73
2023/05/12 06:45:46;;;;;;;7.07;4.93;;;16.30;68.60;;;;;;5075635;28;20863;-74
2023/05/12 06:48:11;;;;;;;7.90;5.20;;;16.40;66.10;;;;;;5072630;28;20379;-73
2023/05/12 06:50:37;;;;;;;10.60;5.60;;;16.30;64.30;;;;;;5072771;28;20613;-74
2023/05/12 06:53:04;;;;;;;7.63;5.10;;;16.20;70.00;;;;;;5071419;28;20525;-74
2023/05/12 06:55:29;;;;;;;5.50;4.80;;;16.40;66.60;;;;;;5072467;28;20404;-74
2023/05/12 06:57:55;;;;;;;7.30;5.13;;;16.60;64.60;;;;;;5072664;28;20391;-75
2023/05/12 07:00:22;;;;;;;5.93;5.20;;;16.60;64.90;;;;;;5072296;28;20390;-75
2023/05/12 07:02:48;;;;;;;11.32;5.10;;;16.70;64.60;;;;;;5071759;28;20394;-75
2023/05/12 07:05:14;;;;;;;5.83;5.23;;;16.80;65.00;;;;;;5072329;28;20433;-75
2023/05/12 07:07:40;;;;;;;6.67;4.83;;;16.90;63.20;;;;;;5072008;28;20751;-75
2023/05/12 07:10:06;;;;;;;10.15;5.68;;;17.10;58.10;;;;;;5072496;28;20463;-75
2023/05/12 07:12:32;;;;;;;7.55;5.40;;;17.10;60.30;;;;;;5071045;28;20469;-74
2023/05/12 07:14:57;;;;;;;10.43;5.17;;;17.30;60.20;;;;;;5071719;28;20430;-75
2023/05/12 07:17:23;;;;;;;8.15;4.70;;;17.30;60.20;;;;;;5072110;28;20387;-73
2023/05/12 07:19:49;;;;;;;10.10;7.03;;;17.20;57.80;;;;;;5072441;28;20392;-73
2023/05/12 07:22:15;;;;;;;7.40;4.90;;;17.00;61.10;;;;;;5072494;28;20533;-72
2023/05/12 07:24:40;;;;;;;12.03;5.10;;;17.00;63.30;;;;;;5053760;28;20797;-74
2023/05/12 07:27:07;;;;;;;6.90;4.30;;;17.30;59.80;;;;;;5071416;28;20379;-74
2023/05/12 07:29:33;;;;;;;5.25;4.30;;;17.30;60.50;;;;;;5071454;28;20383;-74
2023/05/12 07:31:58;;;;;;;6.93;4.50;;;17.50;56.10;;;;;;5070775;28;20372;-73
2023/05/12 07:34:24;;;;;;;6.72;4.57;;;17.60;54.40;;;;;;5071454;28;20513;-74
2023/05/12 07:36:50;;;;;;;4.70;4.30;;;17.30;58.00;;;;;;5071590;28;20402;-73
2023/05/12 07:39:22;;;;;;;8.80;4.77;;;17.50;54.40;;;;;;5065583;28;20468;-74
2023/05/12 07:41:48;;;;;;;5.85;4.30;;;17.30;53.70;;;;;;5065427;28;20917;-74
2023/05/12 07:44:15;;;;;;;107.53;79.05;;;17.40;55.50;;;;;;5069414;28;20400;-74
2023/05/12 07:46:40;;;;;;;29.13;18.50;;;17.40;54.90;;;;;;5070868;28;20411;-74
2023/05/12 07:49:06;;;;;;;5.93;4.83;;;17.40;57.80;;;;;;5071301;28;20427;-74
2023/05/12 07:51:31;;;;;;;4.07;3.50;;;17.50;56.30;;;;;;5061393;28;20419;-74
2023/05/12 07:53:57;;;;;;;4.40;3.72;;;17.40;54.20;;;;;;5070698;28;20392;-74
2023/05/12 07:56:23;;;;;;;7.10;3.70;;;17.40;58.00;;;;;;5070495;28;20407;-74
2023/05/12 07:58:49;;;;;;;4.30;3.90;;;17.50;55.50;;;;;;5071879;28;20895;-75
2023/05/12 08:01:14;;;;;;;8.93;3.80;;;17.50;56.40;;;;;;5079461;28;20406;-74
2023/05/12 08:03:40;;;;;;;3.90;3.08;;;17.70;56.10;;;;;;5082640;28;20395;-73
2023/05/12 08:06:06;;;;;;;4.38;3.40;;;18.00;52.30;;;;;;5077944;28;20386;-74
2023/05/12 08:08:32;;;;;;;9.63;3.25;;;18.10;54.00;;;;;;5091192;28;20854;-76
2023/05/12 08:10:58;;;;;;;3.67;3.30;;;18.30;49.70;;;;;;5090950;28;20389;-74
2023/05/12 08:13:27;;;;;;;4.43;4.03;;;18.50;50.80;;;;;;5091583;28;20773;-76
2023/05/12 08:15:53;;;;;;;5.55;3.55;;;18.40;49.90;;;;;;5081312;28;20403;-76
2023/05/12 08:18:20;;;;;;;4.30;3.40;;;18.40;48.60;;;;;;5071335;28;20436;-75
2023/05/12 08:20:47;;;;;;;6.93;3.65;;;18.20;51.40;;;;;;5071301;28;20741;-76
2023/05/12 08:23:13;;;;;;;4.32;3.40;;;18.10;50.40;;;;;;5052735;28;20963;-76
2023/05/12 08:25:40;;;;;;;8.63;4.27;;;17.90;52.10;;;;;;5071275;28;20529;-76
2023/05/12 08:28:05;;;;;;;5.10;3.90;;;18.00;52.40;;;;;;5069761;28;20414;-75
2023/05/12 08:30:31;;;;;;;5.43;4.00;;;17.90;52.70;;;;;;5070889;28;20392;-74
2023/05/12 08:32:56;;;;;;;4.00;3.60;;;18.00;46.80;;;;;;5070419;28;20949;-75
2023/05/12 08:35:25;;;;;;;8.40;3.50;;;18.00;45.50;;;;;;5072790;28;20399;-74
2023/05/12 08:37:51;;;;;;;6.18;3.33;;;18.00;47.70;;;;;;5073859;28;20447;-74
2023/05/12 08:40:22;;;;;;;8.48;3.40;;;18.20;44.60;;;;;;5073453;28;20383;-75
2023/05/12 08:43:08;;;;;;;4.00;3.20;;;18.30;41.60;;;;;;5090337;28;20417;-74
2023/05/12 08:45:37;;;;;;;7.80;3.88;;;18.20;43.20;;;;;;5090885;28;20378;-74
2023/05/12 08:48:10;;;;;;;8.43;3.28;;;18.20;42.10;;;;;;5095224;28;20374;-75
2023/05/12 08:50:37;;;;;;;9.68;3.78;;;18.40;40.20;;;;;;5056358;28;20384;-75
2023/05/12 08:53:04;;;;;;;7.80;4.00;;;18.50;42.30;;;;;;5072016;28;20383;-75
2023/05/12 08:55:30;;;;;;;7.32;3.55;;;18.60;40.30;;;;;;5070254;28;20501;-72
2023/05/12 08:57:57;;;;;;;4.95;3.38;;;18.60;40.40;;;;;;5071129;28;20433;-74
2023/05/12 09:00:27;;;;;;;6.80;3.50;;;18.90;37.20;;;;;;5052635;28;20382;-74
2023/05/12 09:02:54;;;;;;;6.15;3.55;;;19.00;35.50;;;;;;5070023;28;20776;-75
2023/05/12 09:05:20;;;;;;;4.82;3.10;;;19.20;35.60;;;;;;5070820;28;20426;-74
2023/05/12 09:07:47;;;;;;;8.05;2.95;;;19.60;34.10;;;;;;5077849;28;20863;-75
2023/05/12 09:10:18;;;;;;;10.15;3.80;;;19.80;36.30;;;;;;5084191;28;20485;-76
2023/05/12 09:12:46;;;;;;;4.10;3.10;;;20.20;30.20;;;;;;5087474;28;20390;-76
2023/05/12 09:15:18;;;;;;;5.90;3.30;;;20.30;30.80;;;;;;5090267;28;20497;-73
2023/05/12 09:17:44;;;;;;;4.10;3.10;;;20.40;28.80;;;;;;5075961;28;20385;-73
2023/05/12 09:20:11;;;;;;;5.00;3.40;;;20.40;29.50;;;;;;5072657;28;20389;-74
2023/05/12 09:22:38;;;;;;;4.78;2.90;;;20.70;27.30;;;;;;5061611;28;20376;-76
2023/05/12 09:25:29;;;;;;;5.78;3.80;;;20.90;28.10;;;;;;5074642;22;20472;-72
2023/05/12 09:27:56;;;;;;;7.35;3.50;;;20.90;28.00;;;;;;5050773;28;20762;-73
2023/05/12 09:30:30;;;;;;;9.95;3.40;;;21.10;29.20;;;;;;5060651;28;20397;-75
2023/05/12 09:33:08;;;;;;;5.60;3.03;;;21.30;28.10;;;;;;5060551;28;20393;-75
2023/05/12 09:35:38;;;;;;;6.82;3.20;;;21.30;24.60;;;;;;5058452;28;20428;-73
2023/05/12 09:38:08;;;;;;;11.23;3.35;;;21.50;23.20;;;;;;5054608;28;20409;-74
2023/05/12 09:40:33;;;;;;;7.93;4.05;;;21.40;23.80;;;;;;5054820;28;20388;-73
2023/05/12 09:42:59;;;;;;;6.97;3.80;;;21.60;23.50;;;;;;5054387;28;20382;-74
2023/05/12 09:45:25;;;;;;;4.20;3.73;;;21.20;23.40;;;;;;5055715;28;20723;-73
2023/05/12 09:47:50;;;;;;;7.22;3.90;;;21.20;23.10;;;;;;5053985;28;20679;-72
2023/05/12 09:50:17;;;;;;;5.67;3.47;;;21.10;23.00;;;;;;5054820;28;20873;-74
2023/05/12 09:52:43;;;;;;;6.17;3.60;;;21.00;23.10;;;;;;5053908;28;20458;-74
2023/05/12 09:55:10;;;;;;;4.43;3.20;;;21.10;23.70;;;;;;5053941;28;20459;-72
2023/05/12 09:57:39;;;;;;;7.00;4.10;;;21.30;22.80;;;;;;5055732;28;20377;-74
2023/05/12 10:00:16;;;;;;;3.38;2.85;;;21.50;21.10;;;;;;5056525;28;20854;-73
2023/05/12 10:02:42;;;;;;;8.10;3.22;;;21.70;21.10;;;;;;5056585;28;20401;-75
2023/05/12 10:05:18;;;;;;;3.58;3.28;;;21.90;20.60;;;;;;5057057;28;20417;-74
2023/05/12 10:07:46;;;;;;;5.50;2.90;;;22.20;18.20;;;;;;5057205;28;20390;-74
2023/05/12 10:10:17;;;;;;;5.60;3.40;;;22.20;18.10;;;;;;5037965;28;20446;-74
2023/05/12 10:12:42;;;;;;;6.88;3.00;;;22.50;21.00;;;;;;5054487;28;20874;-75
2023/05/12 10:15:10;;;;;;;7.20;3.50;;;22.80;19.40;;;;;;5054055;28;20431;-74
2023/05/12 10:17:36;;;;;;;3.20;2.90;;;22.80;17.00;;;;;;5055320;28;20431;-74
2023/05/12 10:20:05;;;;;;;5.03;3.85;;;22.90;17.30;;;;;;5054103;28;20377;-75
2023/05/12 10:22:33;;;;;;;6.93;3.35;;;23.30;16.20;;;;;;5053128;28;20382;-74
2023/05/12 10:25:00;;;;;;;9.75;3.30;;;23.70;16.70;;;;;;5053546;28;20397;-74
2023/05/12 10:27:26;;;;;;;4.25;3.33;;;23.80;15.10;;;;;;5053642;28;20384;-73
2023/05/12 10:29:53;;;;;;;4.50;3.57;;;23.70;14.40;;;;;;5053962;28;20385;-73
2023/05/12 10:32:18;;;;;;;5.63;3.90;;;23.50;15.70;;;;;;5053081;28;20750;-75
2023/05/12 10:34:44;;;;;;;6.93;4.00;;;23.60;14.50;;;;;;5054186;28;20384;-73
2023/05/12 10:37:10;;;;;;;5.50;3.20;;;23.70;15.50;;;;;;5053593;28;20864;-74
2023/05/12 10:39:45;;;;;;;9.52;3.30;;;24.00;14.30;;;;;;5053932;28;20801;-73
2023/05/12 10:42:10;;;;;;;5.10;2.55;;;23.90;13.40;;;;;;5055132;28;20461;-72
2023/05/12 10:44:49;;;;;;;5.50;3.30;;;23.90;12.10;;;;;;5056971;28;20417;-74
2023/05/12 10:47:14;;;;;;;11.70;3.80;;;23.90;13.30;;;;;;5053081;28;20390;-74
2023/05/12 10:49:41;;;;;;;6.53;3.70;;;24.00;13.00;;;;;;5054299;28;20457;-74
2023/05/12 10:52:06;;;;;;;5.45;3.30;;;24.20;14.90;;;;;;5054171;28;20912;-74
2023/05/12 10:54:45;;;;;;;6.83;3.00;;;24.10;16.80;;;;;;5055314;28;20393;-72
2023/05/12 10:57:19;;;;;;;5.65;3.38;;;24.40;16.40;;;;;;5036884;28;20393;-74
2023/05/12 10:59:50;;;;;;;9.88;3.50;;;24.60;16.60;;;;;;5056356;28;20369;-73
2023/05/12 11:02:18;;;;;;;3.40;2.90;;;24.50;16.20;;;;;;5054651;28;20386;-74
2023/05/12 11:04:46;;;;;;;4.03;3.40;;;24.30;16.10;;;;;;5059674;28;20378;-74
2023/05/12 11:07:13;;;;;;;5.57;3.80;;;23.90;17.90;;;;;;5066507;28;20393;-73
2023/05/12 11:09:41;;;;;;;8.45;3.70;;;23.90;17.70;;;;;;5073060;28;20382;-72
2023/05/12 11:12:08;;;;;;;4.60;3.67;;;23.80;17.90;;;;;;5069123;28;20373;-74
2023/05/12 11:14:35;;;;;;;4.28;3.50;;;24.00;16.50;;;;;;5069021;28;20400;-73
2023/05/12 11:17:01;;;;;;;6.10;4.00;;;23.80;16.80;;;;;;5039620;28;20429;-74
2023/05/12 11:19:27;;;;;;;4.82;3.95;;;23.60;17.50;;;;;;5035184;28;20486;-74
2023/05/12 11:21:54;;;;;;;5.80;3.30;;;23.40;17.30;;;;;;5052079;28;20381;-73
2023/05/12 11:24:20;;;;;;;7.63;3.70;;;23.60;16.40;;;;;;5052669;28;20393;-73
2023/05/12 11:26:50;;;;;;;10.30;4.10;;;23.40;16.90;;;;;;5052483;28;20408;-71
2023/05/12 11:29:18;;;;;;;6.38;4.00;;;23.10;17.30;;;;;;5035296;28;20938;-74
2023/05/12 11:31:51;;;;;;;4.10;3.60;;;23.00;18.60;;;;;;5034428;28;20398;-72
2023/05/12 11:34:22;;;;;;;8.48;3.80;;;23.00;18.60;;;;;;5063386;28;20377;-72
2023/05/12 11:36:49;;;;;;;4.65;3.55;;;23.10;17.90;;;;;;5063200;28;20449;-73
2023/05/12 11:39:22;;;;;;;4.60;3.60;;;23.50;18.10;;;;;;5052828;28;20389;-72
2023/05/12 11:41:48;;;;;;;7.30;3.92;;;23.60;17.60;;;;;;5052101;28;20377;-72
2023/05/12 11:44:23;;;;;;;7.15;3.30;;;23.40;18.40;;;;;;5053687;28;20382;-74
2023/05/12 11:47:14;;;;;;;5.95;3.25;;;23.20;18.00;;;;;;5052623;28;20389;-72
2023/05/12 11:49:53;;;;;;;5.95;3.88;;;22.80;18.40;;;;;;5033711;28;20382;-71
2023/05/12 11:52:21;;;;;;;6.83;3.43;;;22.30;20.00;;;;;;5045479;28;20439;-73
2023/05/12 11:54:57;;;;;;;6.88;4.32;;;22.80;20.10;;;;;;5049299;28;20389;-73
2023/05/12 11:57:26;;;;;;;4.07;3.70;;;22.90;18.80;;;;;;5050014;28;20901;-71
2023/05/12 11:59:57;;;;;;;4.78;3.70;;;22.90;17.80;;;;;;5048810;28;20761;-72
2023/05/12 12:02:22;;;;;;;5.07;3.40;;;22.80;18.10;;;;;;5048537;28;20809;-74
2023/05/12 12:04:48;;;;;;;6.40;3.57;;;22.60;18.20;;;;;;5047414;28;20413;-71
2023/05/12 12:07:14;;;;;;;8.90;3.47;;;22.50;19.00;;;;;;5049091;28;20378;-72
2023/05/12 12:09:40;;;;;;;11.57;4.30;;;22.80;18.80;;;;;;5047603;28;20858;-72
2023/05/12 12:12:08;;;;;;;5.03;3.40;;;22.90;18.90;;;;;;5048817;28;20405;-73
2023/05/12 12:14:35;;;;;;;5.97;3.78;;;23.00;18.30;;;;;;5049091;28;20393;-73
2023/05/12 12:17:01;;;;;;;4.57;4.05;;;23.10;18.20;;;;;;5047710;28;20924;-73
2023/05/12 12:19:27;;;;;;;5.28;3.80;;;23.40;17.40;;;;;;5049197;28;20385;-73
2023/05/12 12:21:58;;;;;;;5.75;3.90;;;23.90;16.00;;;;;;5047966;28;20736;-72
2023/05/12 12:24:25;;;;;;;5.68;3.60;;;24.30;15.00;;;;;;5033015;28;20404;-72
2023/05/12 12:26:52;;;;;;;4.90;3.60;;;24.20;14.30;;;;;;5052886;28;20909;-71
2023/05/12 12:29:18;;;;;;;6.83;3.60;;;24.20;14.30;;;;;;5055101;28;20405;-72
2023/05/12 12:31:43;;;;;;;5.80;3.45;;;24.40;14.00;;;;;;5050209;28;20425;-72
2023/05/12 12:34:09;;;;;;;4.40;3.90;;;24.10;14.70;;;;;;5050936;28;20411;-73
2023/05/12 12:36:35;;;;;;;4.00;3.13;;;23.60;16.80;;;;;;5051173;28;20428;-74
2023/05/12 12:39:01;;;;;;;7.22;5.13;;;23.50;17.30;;;;;;5050681;28;20389;-70
2023/05/12 12:41:27;;;;;;;4.63;3.70;;;23.90;17.00;;;;;;5050610;28;20854;-72